Terminal Aerodrome Forecast
Issued by NWS

Home | Current Version | Previous Version | Graphics & Text | Print | Product List | Glossary On
Versions: 1 2 3 4 5 6 7 8 9 10 11 12 13 14 15 16 17 18 19
699
FTUS41 KCLE 111047 AAA
TAFFDY
TAF AMD
KFDY 111047Z 1111/1206 21006KT 5SM -SN OVC035
      TEMPO 1112/1116 2SM -SN OVC025
     FM111600 16012G20KT 2SM -SN OVC025
     FM112000 18012G20KT 1SM -SN OVC015
     FM120300 20012KT 3SM -RASN OVC008=

USA.gov is the U.S. government's official web portal to all federal, state and local government web resources and services.